Time;durP1;ratioP1;P1;durP2;ratioP2;P2;SDS_P1;SDS_P2;PMS_P1;PMS_P2;Temp;Humidity;BMP_temperature;BMP_pressure;BME280_temperature;BME280_humidity;BME280_pressure;Samples;Min_cycle;Max_cycle;Signal;HPM_P1;HPM_P2
2022/12/07 00:01:14;;;;;;;7.28;3.58;;;5.10;99.90;;;;;;5071330;28;20048;-77
2022/12/07 00:03:42;;;;;;;5.72;4.18;;;5.10;99.90;;;;;;5074603;28;20145;-77
2022/12/07 00:06:10;;;;;;;4.43;3.03;;;5.10;99.90;;;;;;5066885;28;20066;-77
2022/12/07 00:08:37;;;;;;;5.55;3.60;;;5.10;99.90;;;;;;5060278;28;20423;-76
2022/12/07 00:11:08;;;;;;;4.15;3.42;;;5.10;99.90;;;;;;5061165;28;20049;-77
2022/12/07 00:13:35;;;;;;;4.82;3.20;;;5.10;99.90;;;;;;5059520;28;20041;-77
2022/12/07 00:16:09;;;;;;;3.97;2.90;;;5.10;99.90;;;;;;5062462;28;20350;-77
2022/12/07 00:18:36;;;;;;;4.88;3.58;;;5.20;99.90;;;;;;5059932;28;20156;-77
2022/12/07 00:21:09;;;;;;;5.47;3.20;;;5.20;99.90;;;;;;5042108;28;20056;-77
2022/12/07 00:23:36;;;;;;;6.22;4.65;;;5.20;99.90;;;;;;5059854;28;20178;-77
2022/12/07 00:26:07;;;;;;;6.80;4.55;;;5.10;99.90;;;;;;5064862;28;20584;-76
2022/12/07 00:28:33;;;;;;;8.60;4.53;;;5.00;99.90;;;;;;5060070;28;20160;-77
2022/12/07 00:31:05;;;;;;;5.57;4.03;;;5.00;99.90;;;;;;5061189;28;20182;-77
2022/12/07 00:33:32;;;;;;;5.30;3.75;;;5.00;99.90;;;;;;5048636;28;20052;-77
2022/12/07 00:35:59;;;;;;;5.22;3.53;;;5.00;99.90;;;;;;5060007;28;20136;-77
2022/12/07 00:38:28;;;;;;;6.32;4.15;;;5.10;99.90;;;;;;5061996;28;20050;-77
2022/12/07 00:40:59;;;;;;;5.25;3.63;;;5.00;99.90;;;;;;5061379;28;20685;-77
2022/12/07 00:43:26;;;;;;;5.50;3.80;;;5.00;99.90;;;;;;5061227;28;20067;-77
2022/12/07 00:45:53;;;;;;;8.20;5.13;;;5.00;99.90;;;;;;5041777;28;20524;-76
2022/12/07 00:48:20;;;;;;;8.30;4.80;;;4.90;99.90;;;;;;5044280;28;20114;-77
2022/12/07 00:50:47;;;;;;;6.75;4.75;;;4.80;99.90;;;;;;5061854;28;20053;-77
2022/12/07 00:53:14;;;;;;;6.85;4.65;;;4.80;99.90;;;;;;5069117;28;20099;-76
2022/12/07 00:55:41;;;;;;;6.82;4.65;;;4.80;99.90;;;;;;5062127;28;20099;-77
2022/12/07 00:58:08;;;;;;;6.07;4.00;;;4.80;99.90;;;;;;5041631;28;20048;-77
2022/12/07 01:00:35;;;;;;;6.03;4.13;;;4.80;99.90;;;;;;5070051;28;20523;-76
2022/12/07 01:03:03;;;;;;;5.78;4.40;;;4.80;99.90;;;;;;5043058;28;20357;-77
2022/12/07 01:05:30;;;;;;;7.43;4.70;;;4.80;99.90;;;;;;5072206;28;20056;-77
2022/12/07 01:07:57;;;;;;;7.35;4.22;;;4.70;99.90;;;;;;5080714;28;20083;-77
2022/12/07 01:10:24;;;;;;;5.72;4.10;;;4.80;99.90;;;;;;5074826;28;20059;-77
2022/12/07 01:12:50;;;;;;;6.20;3.60;;;4.80;99.90;;;;;;5061125;28;20144;-76
2022/12/07 01:15:17;;;;;;;4.85;3.08;;;4.80;99.90;;;;;;5060054;28;20398;-76
2022/12/07 01:17:44;;;;;;;6.20;2.95;;;4.80;99.90;;;;;;5060677;28;20052;-76
2022/12/07 01:20:11;;;;;;;5.20;3.25;;;4.80;99.90;;;;;;5066924;28;20044;-76
2022/12/07 01:22:39;;;;;;;4.00;2.90;;;4.70;99.90;;;;;;5060729;28;20056;-77
2022/12/07 01:25:07;;;;;;;4.10;2.80;;;4.70;99.90;;;;;;5043481;28;20123;-76
2022/12/07 01:27:34;;;;;;;6.43;3.50;;;4.70;99.90;;;;;;5059685;28;20044;-76
2022/12/07 01:30:01;;;;;;;5.40;4.43;;;4.60;99.90;;;;;;5063148;28;20058;-77
2022/12/07 01:32:28;;;;;;;6.43;3.03;;;4.60;99.90;;;;;;5063083;28;20051;-76
2022/12/07 01:34:55;;;;;;;5.60;3.47;;;4.50;99.90;;;;;;5060210;28;20059;-76
2022/12/07 01:37:22;;;;;;;3.65;2.72;;;4.60;99.90;;;;;;5064812;28;20126;-76
2022/12/07 01:39:49;;;;;;;4.18;3.28;;;4.60;99.90;;;;;;5079991;28;20048;-76
2022/12/07 01:42:16;;;;;;;8.50;4.38;;;4.60;99.90;;;;;;5059909;28;20060;-76
2022/12/07 01:45:17;;;;;;;5.93;4.18;;;4.50;99.90;;;;;;5060432;28;20052;-77
2022/12/07 01:47:49;;;;;;;8.23;5.05;;;4.40;99.90;;;;;;5056220;28;20514;-77
2022/12/07 01:50:16;;;;;;;4.70;3.67;;;4.40;99.90;;;;;;5039646;28;20559;-77
2022/12/07 01:52:43;;;;;;;4.70;3.95;;;4.40;99.90;;;;;;5063983;28;20063;-77
2022/12/07 01:55:12;;;;;;;6.07;3.88;;;4.40;99.90;;;;;;5062883;28;20108;-77
2022/12/07 01:57:41;;;;;;;4.30;3.00;;;4.40;99.90;;;;;;5042607;28;20091;-77
2022/12/07 02:00:08;;;;;;;5.85;3.78;;;4.40;99.90;;;;;;5044165;28;20044;-77
2022/12/07 02:02:39;;;;;;;3.70;3.13;;;4.30;99.90;;;;;;5058440;28;20051;-77
2022/12/07 02:05:06;;;;;;;3.85;2.65;;;4.30;99.90;;;;;;5039408;28;20048;-78
2022/12/07 02:07:34;;;;;;;3.00;2.10;;;4.30;99.90;;;;;;5052317;28;20503;-77
2022/12/07 02:10:21;;;;;;;3.08;2.40;;;4.30;99.90;;;;;;5060636;28;20344;-77
2022/12/07 02:12:59;;;;;;;2.72;1.70;;;4.40;99.90;;;;;;5055225;28;20789;-77
2022/12/07 02:15:34;;;;;;;2.95;1.80;;;4.40;99.90;;;;;;5038236;28;20053;-77
2022/12/07 02:18:06;;;;;;;1.92;1.33;;;4.40;99.90;;;;;;5050214;28;20139;-77
2022/12/07 02:20:37;;;;;;;3.58;2.13;;;4.40;99.90;;;;;;5028190;28;20060;-77
2022/12/07 02:23:16;;;;;;;3.17;2.20;;;4.40;99.90;;;;;;5042745;28;20052;-77
2022/12/07 02:26:04;;;;;;;3.17;2.13;;;4.30;99.90;;;;;;5058826;28;20076;-76
2022/12/07 02:28:47;;;;;;;6.63;2.95;;;4.40;99.90;;;;;;5058664;28;20052;-77
2022/12/07 02:31:18;;;;;;;8.27;4.32;;;4.30;99.90;;;;;;5058969;28;20565;-77
2022/12/07 02:33:48;;;;;;;4.07;3.22;;;4.30;99.90;;;;;;5075486;28;20170;-78
2022/12/07 02:36:21;;;;;;;5.40;3.10;;;4.30;99.90;;;;;;5081186;28;20083;-77
2022/12/07 02:38:50;;;;;;;4.97;3.35;;;4.30;99.90;;;;;;5065002;28;20060;-76
2022/12/07 02:41:45;;;;;;;5.45;3.17;;;4.20;99.90;;;;;;5067847;28;20044;-77
2022/12/07 02:44:13;;;;;;;5.40;3.38;;;4.20;99.90;;;;;;5064351;28;20120;-77
2022/12/07 02:46:46;;;;;;;4.90;3.05;;;4.20;99.90;;;;;;5074196;28;20041;-77
2022/12/07 02:49:13;;;;;;;3.20;2.42;;;4.20;99.90;;;;;;5082970;28;20040;-75
2022/12/07 02:51:42;;;;;;;4.00;2.78;;;4.20;99.90;;;;;;5063169;28;20056;-77
2022/12/07 02:54:17;;;;;;;3.97;3.03;;;4.20;99.90;;;;;;5066772;28;20418;-76
2022/12/07 02:56:43;;;;;;;4.07;2.70;;;4.20;99.90;;;;;;5051315;28;20052;-77
2022/12/07 02:59:14;;;;;;;6.25;4.40;;;4.20;99.90;;;;;;5080804;28;20139;-77
2022/12/07 03:01:49;;;;;;;6.57;4.60;;;4.20;99.90;;;;;;5087368;28;20191;-77
2022/12/07 03:04:53;;;;;;;6.53;4.80;;;4.20;99.90;;;;;;5074577;28;20078;-76
2022/12/07 03:07:29;;;;;;;7.43;4.78;;;4.20;99.90;;;;;;5083704;28;20139;-77
2022/12/07 03:10:20;;;;;;;6.82;4.03;;;4.20;99.90;;;;;;5088115;28;20138;-77
2022/12/07 03:13:01;;;;;;;5.53;3.85;;;4.20;99.90;;;;;;5079470;28;20092;-77
2022/12/07 03:15:37;;;;;;;5.97;4.07;;;4.20;99.90;;;;;;5077471;28;20075;-76
2022/12/07 03:18:04;;;;;;;7.75;4.90;;;4.30;99.90;;;;;;5087078;28;20078;-77
2022/12/07 03:20:31;;;;;;;5.55;3.97;;;4.30;99.90;;;;;;5067627;28;20569;-77
2022/12/07 03:22:57;;;;;;;6.50;4.32;;;4.20;99.90;;;;;;5078978;28;20044;-76
2022/12/07 03:25:24;;;;;;;5.93;4.45;;;4.20;99.90;;;;;;5065013;28;20048;-77
2022/12/07 03:27:55;;;;;;;5.35;4.15;;;4.30;99.90;;;;;;5085635;28;20048;-76
2022/12/07 03:30:24;;;;;;;4.53;3.65;;;4.30;99.90;;;;;;5086432;28;20044;-77
2022/12/07 03:32:58;;;;;;;5.13;4.07;;;4.30;99.90;;;;;;5079154;28;20087;-76
2022/12/07 03:35:33;;;;;;;6.10;3.67;;;4.40;99.90;;;;;;5046761;28;20057;-77
2022/12/07 03:38:03;;;;;;;5.25;3.63;;;4.40;99.90;;;;;;5046086;28;20506;-77
2022/12/07 03:40:39;;;;;;;4.78;3.50;;;4.30;99.90;;;;;;5046639;28;20045;-77
2022/12/07 03:43:06;;;;;;;4.30;3.50;;;4.40;99.90;;;;;;5052549;28;20052;-76
2022/12/07 03:45:43;;;;;;;5.30;4.35;;;4.40;99.90;;;;;;5065374;28;20530;-77
2022/12/07 03:48:21;;;;;;;6.93;4.45;;;4.30;99.90;;;;;;5074627;28;20048;-76
2022/12/07 03:50:53;;;;;;;6.22;4.60;;;4.30;99.90;;;;;;5069455;28;20428;-77
2022/12/07 03:53:41;;;;;;;7.43;4.82;;;4.30;99.90;;;;;;5055678;28;20048;-76
2022/12/07 03:56:08;;;;;;;4.75;3.67;;;4.40;99.90;;;;;;5010292;28;20049;-77
2022/12/07 03:58:34;;;;;;;4.40;3.70;;;4.40;99.90;;;;;;5041436;28;20488;-77
2022/12/07 04:01:02;;;;;;;5.70;3.92;;;4.40;99.90;;;;;;5030329;28;20065;-77
2022/12/07 04:03:29;;;;;;;7.30;4.15;;;4.40;99.90;;;;;;5044159;28;20235;-77
2022/12/07 04:05:56;;;;;;;5.00;3.50;;;4.40;99.90;;;;;;5045753;28;20052;-77
2022/12/07 04:08:22;;;;;;;4.82;3.65;;;4.40;99.90;;;;;;5033393;28;20128;-76
2022/12/07 04:10:49;;;;;;;5.75;4.38;;;4.40;99.90;;;;;;5037652;28;20567;-77
2022/12/07 04:13:16;;;;;;;4.05;3.20;;;4.40;99.90;;;;;;5035276;28;20714;-76
2022/12/07 04:15:43;;;;;;;4.55;3.15;;;4.40;99.90;;;;;;5028350;28;20044;-77
2022/12/07 04:18:10;;;;;;;4.93;3.00;;;4.50;99.90;;;;;;5038796;28;20071;-77
2022/12/07 04:20:36;;;;;;;5.32;3.40;;;4.50;99.90;;;;;;5025696;28;20359;-77
2022/12/07 04:23:03;;;;;;;4.38;3.40;;;4.40;99.90;;;;;;5034852;28;20049;-77
2022/12/07 04:25:30;;;;;;;6.13;4.43;;;4.50;99.90;;;;;;5045920;28;20132;-76
2022/12/07 04:27:56;;;;;;;4.63;3.53;;;4.40;99.90;;;;;;5037334;28;20060;-77
2022/12/07 04:30:23;;;;;;;7.18;4.53;;;4.40;99.90;;;;;;5030957;28;20196;-77
2022/12/07 04:32:50;;;;;;;8.40;4.80;;;4.40;99.90;;;;;;5045346;28;20075;-77
2022/12/07 04:35:17;;;;;;;8.63;5.80;;;4.40;99.90;;;;;;5028586;28;20499;-76
2022/12/07 04:37:43;;;;;;;9.48;6.13;;;4.30;99.90;;;;;;5024870;28;20373;-76
2022/12/07 04:40:11;;;;;;;5.65;5.00;;;4.30;99.90;;;;;;5027014;28;20050;-77
2022/12/07 04:42:38;;;;;;;7.78;4.60;;;4.30;99.90;;;;;;5035251;28;20053;-77
2022/12/07 04:45:05;;;;;;;6.25;4.72;;;4.30;99.90;;;;;;5047907;28;20045;-77
2022/12/07 04:47:32;;;;;;;6.43;4.18;;;4.30;99.90;;;;;;5043421;28;20055;-77
2022/12/07 04:49:58;;;;;;;4.28;3.83;;;4.40;99.90;;;;;;5045163;28;20053;-78
2022/12/07 04:52:26;;;;;;;3.67;3.28;;;4.40;99.90;;;;;;5047747;28;20445;-78
2022/12/07 04:54:52;;;;;;;4.00;3.00;;;4.40;99.90;;;;;;5056897;28;20220;-78
2022/12/07 04:57:19;;;;;;;4.63;3.42;;;4.40;99.90;;;;;;5066357;28;20048;-78
2022/12/07 04:59:46;;;;;;;6.20;3.65;;;4.40;99.90;;;;;;5065585;28;20088;-78
2022/12/07 05:02:12;;;;;;;4.28;3.60;;;4.40;99.90;;;;;;5061611;28;20049;-76
2022/12/07 05:04:39;;;;;;;3.80;3.28;;;4.40;99.90;;;;;;5072736;28;20074;-76
2022/12/07 05:07:06;;;;;;;3.83;3.05;;;4.40;99.90;;;;;;5061648;28;20607;-76
2022/12/07 05:09:33;;;;;;;3.28;2.97;;;4.40;99.90;;;;;;5064603;28;20236;-77
2022/12/07 05:11:59;;;;;;;3.20;2.90;;;4.40;99.90;;;;;;5063811;28;20041;-77
2022/12/07 05:14:26;;;;;;;2.70;2.28;;;4.40;99.90;;;;;;5076528;28;20451;-76
2022/12/07 05:16:53;;;;;;;3.28;2.40;;;4.50;99.90;;;;;;5068215;28;20055;-76
2022/12/07 05:19:20;;;;;;;3.13;2.75;;;4.60;99.90;;;;;;5053780;28;20103;-77
2022/12/07 05:21:47;;;;;;;2.42;1.98;;;4.60;99.90;;;;;;5054956;28;20048;-77
2022/12/07 05:24:14;;;;;;;2.03;1.77;;;4.60;99.90;;;;;;5053976;28;20120;-77
2022/12/07 05:26:41;;;;;;;3.38;2.53;;;4.60;99.90;;;;;;5057820;28;20040;-76
2022/12/07 05:29:07;;;;;;;2.63;1.90;;;4.60;99.90;;;;;;5057180;28;20049;-76
2022/12/07 05:31:34;;;;;;;1.88;1.58;;;4.60;99.90;;;;;;5058129;28;20044;-76
2022/12/07 05:34:01;;;;;;;2.85;1.80;;;4.60;99.90;;;;;;5053799;28;20588;-76
2022/12/07 05:36:28;;;;;;;3.28;1.77;;;4.60;99.90;;;;;;5056794;28;20665;-77
2022/12/07 05:38:55;;;;;;;3.70;2.75;;;4.60;99.90;;;;;;5058969;28;20053;-77
2022/12/07 05:44:07;;;;;;;3.58;2.95;;;4.60;99.90;;;;;;5055330;28;20045;-76
2022/12/07 05:46:34;;;;;;;4.88;3.25;;;4.60;99.90;;;;;;5062215;28;20053;-75
2022/12/07 05:49:01;;;;;;;3.97;2.85;;;4.50;99.90;;;;;;5039378;28;20056;-75
2022/12/07 05:51:28;;;;;;;4.13;3.35;;;4.50;99.90;;;;;;5053716;28;20075;-76
2022/12/07 05:53:54;;;;;;;5.78;3.00;;;4.50;99.90;;;;;;5053458;28;20061;-76
2022/12/07 05:56:21;;;;;;;4.95;3.08;;;4.50;99.90;;;;;;5049227;28;20056;-76
2022/12/07 06:01:33;;;;;;;3.95;3.10;;;4.50;99.90;;;;;;5053952;28;20508;-76
2022/12/07 06:04:00;;;;;;;5.47;3.40;;;4.50;99.90;;;;;;5055960;28;20449;-75
2022/12/07 06:06:26;;;;;;;4.93;3.83;;;4.40;99.90;;;;;;5054459;28;20063;-76
2022/12/07 06:08:53;;;;;;;4.53;3.90;;;4.40;99.90;;;;;;5057510;28;20484;-76
2022/12/07 06:14:05;;;;;;;5.30;3.72;;;4.40;99.90;;;;;;5055467;28;20044;-75
2022/12/07 06:16:32;;;;;;;5.07;3.53;;;4.40;99.90;;;;;;5053446;28;20372;-77
2022/12/07 06:18:59;;;;;;;5.15;3.65;;;4.40;99.90;;;;;;5055662;28;20679;-75
2022/12/07 06:21:26;;;;;;;5.50;3.47;;;4.40;99.90;;;;;;5054877;28;20059;-75
2022/12/07 06:23:53;;;;;;;5.63;4.07;;;4.40;99.90;;;;;;5056301;28;20045;-76
2022/12/07 06:26:20;;;;;;;4.35;3.35;;;4.40;99.90;;;;;;5036616;28;20051;-75
2022/12/07 06:28:46;;;;;;;4.32;3.72;;;4.40;99.90;;;;;;5057864;28;20537;-77
2022/12/07 06:31:13;;;;;;;5.65;3.72;;;4.40;99.90;;;;;;5054460;28;20044;-76
2022/12/07 06:33:40;;;;;;;4.55;3.65;;;4.40;99.90;;;;;;5054732;28;20077;-75
2022/12/07 06:36:07;;;;;;;6.90;3.60;;;4.40;99.90;;;;;;5058246;28;20059;-78
2022/12/07 06:38:34;;;;;;;4.65;2.90;;;4.40;99.90;;;;;;5039769;28;20056;-77
2022/12/07 06:41:01;;;;;;;3.85;2.85;;;4.40;99.90;;;;;;5040784;28;20052;-76
2022/12/07 06:43:28;;;;;;;7.38;3.50;;;4.40;99.90;;;;;;5055878;28;20052;-75
2022/12/07 06:45:54;;;;;;;3.85;3.05;;;4.40;99.90;;;;;;5057091;28;20043;-75
2022/12/07 06:48:21;;;;;;;2.83;2.47;;;4.40;99.90;;;;;;5038169;28;20044;-75
2022/12/07 06:50:48;;;;;;;3.47;2.60;;;4.50;99.90;;;;;;5053894;28;20644;-75
2022/12/07 06:53:21;;;;;;;4.22;2.92;;;4.50;99.90;;;;;;5056937;28;20037;-75
2022/12/07 06:55:47;;;;;;;3.33;2.35;;;4.40;99.90;;;;;;5057665;28;20063;-75
2022/12/07 06:58:14;;;;;;;3.60;2.53;;;4.50;99.90;;;;;;5053393;28;20768;-75
2022/12/07 07:00:41;;;;;;;3.10;2.40;;;4.50;99.90;;;;;;5058828;28;20048;-75
2022/12/07 07:03:07;;;;;;;2.97;2.17;;;4.50;99.90;;;;;;5031092;28;20519;-75
2022/12/07 07:05:34;;;;;;;4.82;2.88;;;4.50;99.90;;;;;;5053707;28;20123;-75
2022/12/07 07:08:01;;;;;;;3.20;2.42;;;4.50;99.90;;;;;;5054880;28;20052;-75
2022/12/07 07:10:48;;;;;;;5.18;3.80;;;4.50;99.90;;;;;;5035958;28;20654;-75
2022/12/07 07:13:14;;;;;;;3.90;2.90;;;4.50;99.90;;;;;;5058810;28;20141;-74
2022/12/07 07:15:41;;;;;;;5.65;4.07;;;4.40;99.90;;;;;;5055054;28;20310;-75
2022/12/07 07:18:08;;;;;;;5.95;3.60;;;4.40;99.90;;;;;;5053593;28;20040;-74
2022/12/07 07:20:35;;;;;;;6.57;4.18;;;4.50;99.90;;;;;;5036392;28;20363;-75
2022/12/07 07:23:01;;;;;;;4.50;3.10;;;4.40;99.90;;;;;;5036653;28;20048;-74
2022/12/07 07:25:28;;;;;;;2.88;2.40;;;4.40;99.90;;;;;;5052965;28;20044;-74
2022/12/07 07:27:55;;;;;;;4.32;2.72;;;4.40;99.90;;;;;;5031330;28;20075;-75
2022/12/07 07:30:22;;;;;;;6.03;3.28;;;4.50;99.90;;;;;;5055079;28;20504;-75
2022/12/07 07:32:48;;;;;;;5.88;2.63;;;4.40;99.90;;;;;;5051800;28;20049;-75
2022/12/07 07:35:15;;;;;;;4.45;3.50;;;4.50;99.90;;;;;;5050420;28;20055;-75
2022/12/07 07:37:42;;;;;;;5.85;3.58;;;4.40;99.90;;;;;;5054091;28;20418;-75
2022/12/07 07:40:09;;;;;;;5.45;3.42;;;4.40;99.90;;;;;;5056249;28;20555;-75
2022/12/07 07:42:36;;;;;;;5.75;3.47;;;4.40;99.90;;;;;;5062207;28;20075;-75
2022/12/07 07:45:04;;;;;;;8.77;3.90;;;4.30;99.90;;;;;;5058985;28;20148;-75
2022/12/07 07:47:31;;;;;;;5.88;4.32;;;4.40;99.90;;;;;;5075584;28;20048;-74
2022/12/07 07:49:58;;;;;;;4.53;3.95;;;4.30;99.90;;;;;;5058492;28;20052;-75
2022/12/07 07:52:25;;;;;;;6.15;4.15;;;4.30;99.90;;;;;;5056421;28;20040;-75
2022/12/07 07:54:51;;;;;;;4.82;3.42;;;4.30;99.90;;;;;;5057834;28;20087;-76
2022/12/07 07:57:18;;;;;;;4.43;2.90;;;4.30;99.90;;;;;;5070567;28;20305;-76
2022/12/07 07:59:45;;;;;;;5.35;3.53;;;4.40;99.90;;;;;;5071498;28;20116;-76
2022/12/07 08:02:16;;;;;;;3.35;2.85;;;4.40;99.90;;;;;;5042518;28;20107;-76
2022/12/07 08:04:43;;;;;;;6.20;3.53;;;4.40;99.90;;;;;;5041013;28;20076;-76
2022/12/07 08:07:11;;;;;;;3.53;2.83;;;4.40;99.90;;;;;;5059029;28;20072;-76
2022/12/07 08:09:38;;;;;;;4.22;2.88;;;4.40;99.90;;;;;;5072356;28;20048;-76
2022/12/07 08:12:05;;;;;;;2.90;2.00;;;4.50;99.90;;;;;;5073904;28;20052;-76
2022/12/07 08:14:32;;;;;;;4.53;2.58;;;4.50;99.90;;;;;;5053863;28;20135;-76
2022/12/07 08:16:59;;;;;;;2.65;2.10;;;4.50;99.90;;;;;;5040856;28;20290;-75
2022/12/07 08:19:26;;;;;;;3.05;1.73;;;4.50;99.90;;;;;;5057986;28;20140;-76
2022/12/07 08:21:53;;;;;;;3.70;2.22;;;4.60;99.90;;;;;;5057355;28;20583;-76
2022/12/07 08:24:19;;;;;;;2.97;2.53;;;4.60;99.90;;;;;;5057180;28;20891;-76
2022/12/07 08:26:46;;;;;;;2.65;2.28;;;4.60;99.90;;;;;;5040463;28;20131;-76
2022/12/07 08:29:13;;;;;;;4.68;2.85;;;4.60;99.90;;;;;;5055692;28;20055;-76
2022/12/07 08:31:40;;;;;;;5.57;3.58;;;4.60;99.90;;;;;;5048012;28;20107;-76
2022/12/07 08:34:07;;;;;;;4.65;2.60;;;4.60;99.90;;;;;;5058702;28;20079;-75
2022/12/07 08:36:33;;;;;;;3.78;2.58;;;4.60;99.90;;;;;;5058023;28;20132;-76
2022/12/07 08:39:00;;;;;;;3.70;2.70;;;4.60;99.90;;;;;;5057972;28;20052;-76
2022/12/07 08:41:47;;;;;;;3.67;3.17;;;4.60;99.90;;;;;;5058270;28;20057;-76
2022/12/07 08:44:14;;;;;;;4.82;3.97;;;4.50;99.90;;;;;;5056216;28;20197;-77
2022/12/07 08:46:56;;;;;;;5.45;3.47;;;4.50;99.90;;;;;;5059419;28;20147;-76
2022/12/07 08:49:27;;;;;;;5.50;3.58;;;4.50;99.90;;;;;;5046281;28;20542;-76
2022/12/07 08:51:55;;;;;;;3.50;2.95;;;4.60;99.90;;;;;;5051472;28;20135;-77
2022/12/07 08:54:22;;;;;;;4.63;3.17;;;4.60;99.90;;;;;;5055412;28;20423;-76
2022/12/07 08:56:48;;;;;;;4.47;3.50;;;4.60;99.90;;;;;;5037697;28;20045;-76
2022/12/07 08:59:22;;;;;;;6.15;4.13;;;4.60;99.90;;;;;;5054397;28;20072;-76
2022/12/07 09:01:49;;;;;;;5.03;3.63;;;4.60;99.90;;;;;;5060476;28;20056;-76
2022/12/07 09:04:16;;;;;;;4.40;3.25;;;4.60;99.90;;;;;;5039717;28;20455;-76
2022/12/07 09:06:42;;;;;;;4.25;3.20;;;4.50;99.90;;;;;;5058510;28;20405;-76
2022/12/07 09:09:09;;;;;;;4.05;3.20;;;4.60;99.90;;;;;;5043386;28;20076;-77
2022/12/07 09:11:36;;;;;;;5.07;2.97;;;4.60;99.90;;;;;;5045095;28;20041;-77
2022/12/07 09:14:03;;;;;;;6.75;4.18;;;4.60;99.90;;;;;;5064310;28;20049;-77
2022/12/07 09:16:30;;;;;;;4.90;3.78;;;4.50;99.90;;;;;;5065479;28;20040;-77
2022/12/07 09:18:57;;;;;;;4.70;3.42;;;4.60;99.90;;;;;;5046647;28;20140;-77
2022/12/07 09:21:23;;;;;;;6.40;4.18;;;4.60;99.90;;;;;;5048358;28;20049;-77
2022/12/07 09:23:50;;;;;;;4.95;3.78;;;4.60;99.90;;;;;;5056613;28;20048;-77
2022/12/07 09:26:17;;;;;;;6.53;4.55;;;4.50;99.90;;;;;;5025528;28;20051;-77
2022/12/07 09:28:43;;;;;;;4.90;3.50;;;4.50;99.90;;;;;;5040584;28;20104;-77
2022/12/07 09:31:10;;;;;;;5.80;3.80;;;4.50;99.90;;;;;;5041869;28;20055;-77
2022/12/07 09:34:02;;;;;;;5.22;4.03;;;4.50;99.90;;;;;;5057118;28;20052;-76
2022/12/07 09:36:29;;;;;;;4.45;3.70;;;4.60;99.90;;;;;;5057488;28;20159;-76
2022/12/07 09:38:56;;;;;;;5.53;3.33;;;4.60;99.90;;;;;;5024444;28;20135;-77
2022/12/07 09:41:23;;;;;;;5.18;3.30;;;4.60;99.90;;;;;;5041419;28;20194;-77
2022/12/07 09:43:50;;;;;;;6.65;4.10;;;4.70;99.90;;;;;;5056456;28;20197;-77
2022/12/07 09:46:18;;;;;;;10.18;5.18;;;4.70;99.90;;;;;;5057587;28;20487;-78
2022/12/07 09:48:45;;;;;;;6.35;4.07;;;4.60;99.90;;;;;;5055435;28;20048;-78
2022/12/07 09:51:18;;;;;;;4.95;3.70;;;4.70;99.90;;;;;;5053894;28;20051;-77
2022/12/07 09:53:50;;;;;;;5.65;3.70;;;4.70;99.90;;;;;;5048157;28;20061;-77
2022/12/07 09:56:18;;;;;;;5.35;3.40;;;4.70;99.90;;;;;;5056527;28;20684;-77
2022/12/07 09:58:44;;;;;;;6.10;4.47;;;4.70;99.90;;;;;;5055343;28;20071;-78
2022/12/07 10:01:13;;;;;;;4.93;3.17;;;4.70;99.90;;;;;;5039154;28;20749;-78
2022/12/07 10:03:47;;;;;;;5.97;3.38;;;4.70;99.90;;;;;;5052392;28;20056;-78
2022/12/07 10:06:14;;;;;;;4.95;3.35;;;4.70;99.90;;;;;;5052881;28;20070;-78
2022/12/07 10:08:43;;;;;;;5.60;3.65;;;4.70;99.90;;;;;;5060123;28;20051;-79
2022/12/07 10:11:10;;;;;;;5.50;3.38;;;4.70;99.90;;;;;;5062285;28;20496;-78
2022/12/07 10:13:38;;;;;;;4.32;2.78;;;4.80;99.90;;;;;;5054231;28;20048;-78
2022/12/07 10:16:05;;;;;;;4.25;2.63;;;4.80;99.90;;;;;;5038900;28;20143;-78
2022/12/07 10:18:38;;;;;;;4.32;2.58;;;4.80;99.90;;;;;;5056984;28;20052;-78
2022/12/07 10:21:08;;;;;;;4.00;2.50;;;4.80;99.90;;;;;;5053951;28;20052;-77
2022/12/07 10:23:36;;;;;;;2.90;2.30;;;4.80;99.90;;;;;;5047899;28;20044;-77
2022/12/07 10:26:40;;;;;;;4.05;2.42;;;4.80;99.90;;;;;;5037174;28;20507;-77
2022/12/07 10:29:16;;;;;;;3.97;2.75;;;4.80;99.90;;;;;;5005431;28;20720;-77
2022/12/07 10:31:43;;;;;;;2.85;2.33;;;4.80;99.90;;;;;;5031156;28;20557;-77
2022/12/07 10:34:31;;;;;;;3.72;2.22;;;4.80;99.90;;;;;;5038210;28;20158;-76
2022/12/07 10:37:16;;;;;;;2.70;1.80;;;4.70;99.90;;;;;;5052412;28;20137;-77
2022/12/07 10:39:52;;;;;;;3.20;2.00;;;4.70;99.90;;;;;;5055801;28;20083;-77
2022/12/07 10:42:20;;;;;;;3.35;2.17;;;4.60;99.90;;;;;;5053380;28;20166;-77
2022/12/07 10:44:48;;;;;;;5.57;2.88;;;4.60;99.90;;;;;;5054459;28;20044;-77
2022/12/07 10:47:50;;;;;;;3.75;2.53;;;4.60;99.90;;;;;;5037405;28;20419;-77
2022/12/07 10:50:58;;;;;;;3.78;2.65;;;4.60;99.90;;;;;;4998875;28;20126;-77
2022/12/07 10:53:34;;;;;;;4.95;3.30;;;4.70;99.90;;;;;;5029184;28;20067;-76
2022/12/07 10:56:20;;;;;;;4.63;3.20;;;4.70;99.90;;;;;;5047393;28;20053;-77
2022/12/07 10:59:04;;;;;;;5.97;3.25;;;4.80;99.90;;;;;;5052859;28;20495;-79
2022/12/07 11:01:49;;;;;;;5.20;3.10;;;4.70;99.90;;;;;;5035247;28;20048;-79
2022/12/07 11:04:50;;;;;;;4.05;2.75;;;4.70;99.90;;;;;;5053159;28;20044;-76
2022/12/07 11:07:28;;;;;;;3.78;2.67;;;4.70;99.90;;;;;;5038786;28;20056;-76
2022/12/07 11:10:01;;;;;;;5.80;3.35;;;4.80;99.90;;;;;;5053783;28;20059;-76
2022/12/07 11:13:02;;;;;;;4.45;2.75;;;4.70;99.90;;;;;;5042019;28;20037;-76
2022/12/07 11:15:40;;;;;;;5.68;4.47;;;4.80;99.90;;;;;;5043795;28;20328;-76
2022/12/07 11:18:50;;;;;;;6.05;3.55;;;4.80;99.90;;;;;;5074886;28;20134;-76
2022/12/07 11:21:27;;;;;;;5.03;3.13;;;4.80;99.90;;;;;;5038648;28;20302;-76
2022/12/07 11:24:29;;;;;;;6.95;3.70;;;4.90;99.90;;;;;;5050956;28;20163;-79
2022/12/07 11:27:09;;;;;;;5.28;3.72;;;5.00;99.90;;;;;;5017236;28;20437;-79
2022/12/07 11:30:00;;;;;;;5.43;3.85;;;5.10;99.90;;;;;;5023276;28;20059;-76
2022/12/07 11:32:42;;;;;;;6.07;3.60;;;5.10;99.90;;;;;;5057509;28;20191;-76
2022/12/07 11:35:44;;;;;;;4.55;2.90;;;5.20;99.90;;;;;;5064727;28;20070;-77
2022/12/07 11:38:19;;;;;;;3.53;2.72;;;5.20;99.90;;;;;;5048515;28;20425;-76
2022/12/07 11:40:56;;;;;;;5.18;3.20;;;5.20;99.90;;;;;;5040027;28;20067;-79
2022/12/07 11:43:31;;;;;;;4.95;3.55;;;5.30;99.90;;;;;;5058515;28;20099;-79
2022/12/07 11:46:10;;;;;;;6.95;3.95;;;5.40;99.90;;;;;;5044998;28;20075;-76
2022/12/07 11:48:40;;;;;;;5.70;3.47;;;5.40;99.90;;;;;;5042975;28;20102;-76
2022/12/07 11:51:08;;;;;;;6.03;3.53;;;5.40;99.90;;;;;;5043962;28;20139;-76
2022/12/07 11:53:37;;;;;;;9.52;4.75;;;5.40;99.90;;;;;;5044565;28;20059;-76
2022/12/07 11:56:19;;;;;;;6.50;3.58;;;5.40;99.90;;;;;;5061504;28;20051;-76
2022/12/07 11:59:00;;;;;;;6.60;4.07;;;5.30;99.90;;;;;;5043559;28;20052;-76
2022/12/07 12:01:45;;;;;;;6.90;3.50;;;5.30;99.90;;;;;;5045124;28;20071;-76
2022/12/07 12:04:27;;;;;;;7.25;4.03;;;5.30;99.90;;;;;;5061737;28;20072;-76
2022/12/07 12:06:54;;;;;;;5.45;4.35;;;5.30;99.90;;;;;;5061589;28;20140;-76
2022/12/07 12:09:26;;;;;;;4.90;3.35;;;5.40;99.90;;;;;;5060956;28;20486;-77
2022/12/07 12:12:36;;;;;;;4.43;3.13;;;5.60;99.90;;;;;;5061077;28;20052;-77
2022/12/07 12:15:41;;;;;;;5.78;3.05;;;5.60;99.90;;;;;;5046715;28;20151;-77
2022/12/07 12:18:41;;;;;;;3.55;2.67;;;5.70;99.90;;;;;;5062094;28;20224;-77
2022/12/07 12:21:09;;;;;;;3.97;3.17;;;5.80;99.90;;;;;;5059586;28;20082;-76
2022/12/07 12:23:51;;;;;;;5.53;3.60;;;5.80;99.90;;;;;;5043983;28;20500;-77
2022/12/07 12:26:20;;;;;;;5.97;3.67;;;5.70;99.90;;;;;;5060058;28;20074;-77
2022/12/07 12:29:15;;;;;;;6.25;3.55;;;5.70;99.90;;;;;;5040918;28;20173;-77
2022/12/07 12:31:42;;;;;;;4.85;3.00;;;5.80;99.90;;;;;;5063964;28;20079;-77
2022/12/07 12:34:29;;;;;;;4.55;2.90;;;5.90;99.90;;;;;;5062261;28;20087;-78
2022/12/07 12:36:56;;;;;;;3.22;2.90;;;6.20;99.90;;;;;;5061999;28;20044;-78
2022/12/07 12:39:23;;;;;;;5.03;3.58;;;6.40;99.90;;;;;;5060801;28;20067;-78
2022/12/07 12:44:17;;;;;;;5.00;3.58;;;6.60;99.90;;;;;;5060971;28;20500;-78
2022/12/07 12:46:57;;;;;;;4.30;3.33;;;6.90;99.90;;;;;;5060777;28;20048;-78
2022/12/07 12:49:24;;;;;;;4.88;3.58;;;7.00;99.90;;;;;;5061002;28;20048;-78
2022/12/07 12:51:58;;;;;;;4.63;3.45;;;7.10;99.90;;;;;;5061124;28;20044;-78
2022/12/07 12:54:32;;;;;;;4.20;3.20;;;7.10;99.90;;;;;;5042913;28;20062;-78
2022/12/07 12:57:30;;;;;;;3.80;2.65;;;7.10;99.90;;;;;;5054324;28;20060;-77
2022/12/07 12:59:58;;;;;;;4.10;3.30;;;7.10;99.90;;;;;;5060836;28;20064;-78
2022/12/07 13:02:28;;;;;;;4.70;3.10;;;6.80;99.90;;;;;;5026817;28;20055;-77
2022/12/07 13:05:01;;;;;;;3.60;2.65;;;6.70;99.90;;;;;;5054486;28;20496;-78
2022/12/07 13:07:44;;;;;;;4.53;2.90;;;6.70;99.90;;;;;;5051330;28;20048;-77
2022/12/07 13:10:23;;;;;;;3.65;2.80;;;6.70;99.90;;;;;;5055327;28;20076;-78
2022/12/07 13:12:56;;;;;;;3.42;2.35;;;6.70;99.90;;;;;;5071882;28;20063;-78
2022/12/07 13:15:39;;;;;;;3.78;2.72;;;6.50;99.90;;;;;;5057043;28;20163;-78
2022/12/07 13:18:28;;;;;;;4.67;3.13;;;6.40;99.90;;;;;;5054945;28;20135;-77
2022/12/07 13:20:58;;;;;;;4.05;2.60;;;6.20;99.90;;;;;;5076844;28;20125;-77
2022/12/07 13:23:29;;;;;;;4.40;2.92;;;6.20;99.90;;;;;;5058745;28;20421;-78
2022/12/07 13:26:14;;;;;;;3.83;2.60;;;6.10;99.90;;;;;;5054146;28;20432;-78
2022/12/07 13:28:51;;;;;;;3.92;2.60;;;6.10;99.90;;;;;;5073240;28;20048;-78
2022/12/07 13:31:38;;;;;;;3.58;2.20;;;6.10;99.90;;;;;;5058710;28;20102;-77